createdAt,value
2023-02-03T00:00:01.888Z,1015.41
2023-02-03T00:00:34.364Z,1015.43
2023-02-03T00:01:06.870Z,1015.42
2023-02-03T00:01:39.395Z,1015.42
2023-02-03T00:02:11.917Z,1015.40
2023-02-03T00:02:44.336Z,1015.39
2023-02-03T00:03:23.877Z,1015.38
2023-02-03T00:04:03.807Z,1015.36
2023-02-03T00:04:37.084Z,1015.36
2023-02-03T00:05:09.584Z,1015.32
2023-02-03T00:05:42.134Z,1015.28
2023-02-03T00:06:14.593Z,1015.25
2023-02-03T00:06:47.056Z,1015.25
2023-02-03T00:07:19.516Z,1015.22
2023-02-03T00:07:51.948Z,1015.24
2023-02-03T00:08:24.420Z,1015.26
2023-02-03T00:08:56.899Z,1015.18
2023-02-03T00:09:29.353Z,1015.26
2023-02-03T00:10:01.948Z,1015.27
2023-02-03T00:10:34.445Z,1015.29
2023-02-03T00:11:06.895Z,1015.25
2023-02-03T00:11:39.425Z,1015.32
2023-02-03T00:12:11.902Z,1015.32
2023-02-03T00:12:44.366Z,1015.30
2023-02-03T00:13:16.817Z,1015.28
2023-02-03T00:13:49.266Z,1015.30
2023-02-03T00:14:21.726Z,1015.27
2023-02-03T00:14:54.182Z,1015.31
2023-02-03T00:15:26.619Z,1015.33
2023-02-03T00:15:59.086Z,1015.27
2023-02-03T00:16:31.589Z,1015.30
2023-02-03T00:17:04.009Z,1015.29
2023-02-03T00:17:36.447Z,1015.28
2023-02-03T00:18:09.482Z,1015.33
2023-02-03T00:18:42.014Z,1015.32
2023-02-03T00:19:15.512Z,1015.37
2023-02-03T00:19:47.053Z,1015.37
2023-02-03T00:20:19.487Z,1015.42
2023-02-03T00:20:51.938Z,1015.40
2023-02-03T00:21:24.384Z,1015.38
2023-02-03T00:21:56.844Z,1015.35
2023-02-03T00:22:29.315Z,1015.35
2023-02-03T00:23:01.946Z,1015.39
2023-02-03T00:23:34.805Z,1015.35
2023-02-03T00:24:07.531Z,1015.34
2023-02-03T00:24:40.008Z,1015.33
2023-02-03T00:25:12.544Z,1015.34
2023-02-03T00:25:45.248Z,1015.27
2023-02-03T00:26:17.850Z,1015.33
2023-02-03T00:26:50.493Z,1015.32
2023-02-03T00:27:23.098Z,1015.32
2023-02-03T00:27:55.943Z,1015.31
2023-02-03T00:28:28.470Z,1015.31
2023-02-03T00:29:01.200Z,1015.34
2023-02-03T00:29:33.809Z,1015.38
2023-02-03T00:30:06.387Z,1015.40
2023-02-03T00:30:38.910Z,1015.41
2023-02-03T00:31:11.382Z,1015.44
2023-02-03T00:31:43.888Z,1015.45
2023-02-03T00:32:16.438Z,1015.43
2023-02-03T00:32:48.757Z,1015.42
2023-02-03T00:33:21.216Z,1015.44
2023-02-03T00:33:53.714Z,1015.47
2023-02-03T00:34:26.209Z,1015.47
2023-02-03T00:34:58.789Z,1015.46
2023-02-03T00:35:31.470Z,1015.50
2023-02-03T00:36:04.119Z,1015.49
2023-02-03T00:36:36.724Z,1015.51
2023-02-03T00:37:09.263Z,1015.45
2023-02-03T00:37:41.831Z,1015.45
2023-02-03T00:38:14.350Z,1015.48
2023-02-03T00:38:46.869Z,1015.51
2023-02-03T00:39:19.290Z,1015.52
2023-02-03T00:39:51.788Z,1015.52
2023-02-03T00:40:24.517Z,1015.54
2023-02-03T00:40:56.694Z,1015.54
2023-02-03T00:41:29.185Z,1015.57
2023-02-03T00:42:01.814Z,1015.56
2023-02-03T00:42:34.268Z,1015.52
2023-02-03T00:43:06.746Z,1015.54
2023-02-03T00:43:39.237Z,1015.58
2023-02-03T00:44:11.724Z,1015.58
2023-02-03T00:44:44.209Z,1015.60
2023-02-03T00:45:16.685Z,1015.55
2023-02-03T00:45:49.146Z,1015.54
2023-02-03T00:46:21.575Z,1015.51
2023-02-03T00:46:54.040Z,1015.56
2023-02-03T00:47:26.480Z,1015.57
2023-02-03T00:47:58.918Z,1015.57
2023-02-03T00:48:31.411Z,1015.56
2023-02-03T00:49:03.916Z,1015.54
2023-02-03T00:49:36.365Z,1015.57
2023-02-03T00:50:08.831Z,1015.54
2023-02-03T00:50:41.301Z,1015.57
2023-02-03T00:51:13.734Z,1015.55
2023-02-03T00:51:46.335Z,1015.57
2023-02-03T00:52:18.799Z,1015.57
2023-02-03T00:52:51.316Z,1015.61
2023-02-03T00:53:23.813Z,1015.64
2023-02-03T00:53:56.285Z,1015.61
2023-02-03T00:54:28.739Z,1015.61
2023-02-03T00:55:01.807Z,1015.60
2023-02-03T00:55:34.293Z,1015.65
2023-02-03T00:56:07.319Z,1015.61
2023-02-03T00:56:40.593Z,1015.62
2023-02-03T00:57:13.020Z,1015.67
2023-02-03T00:57:45.521Z,1015.69
2023-02-03T00:58:17.971Z,1015.68
2023-02-03T00:58:50.433Z,1015.70
2023-02-03T00:59:23.024Z,1015.69
2023-02-03T00:59:55.544Z,1015.74
2023-02-03T01:00:28.324Z,1015.78
2023-02-03T01:01:00.485Z,1015.76
2023-02-03T01:01:33.157Z,1015.79
2023-02-03T01:02:05.562Z,1015.79
2023-02-03T01:02:38.091Z,1015.75
2023-02-03T01:03:10.493Z,1015.83
2023-02-03T01:03:42.918Z,1015.80
2023-02-03T01:04:15.419Z,1015.80
2023-02-03T01:04:47.877Z,1015.82
2023-02-03T01:05:20.338Z,1015.87
2023-02-03T01:05:52.801Z,1015.81
2023-02-03T01:06:25.254Z,1015.85
2023-02-03T01:06:57.713Z,1015.86
2023-02-03T01:07:30.178Z,1015.83
2023-02-03T01:08:02.653Z,1015.86
2023-02-03T01:08:35.093Z,1015.80
2023-02-03T01:09:07.533Z,1015.79
2023-02-03T01:09:39.973Z,1015.73
2023-02-03T01:10:12.442Z,1015.78
2023-02-03T01:10:44.879Z,1015.72
2023-02-03T01:11:17.338Z,1015.72
2023-02-03T01:11:49.828Z,1015.68
2023-02-03T01:12:22.335Z,1015.67
2023-02-03T01:12:54.802Z,1015.68
2023-02-03T01:13:27.254Z,1015.67
2023-02-03T01:13:59.716Z,1015.68
2023-02-03T01:14:32.167Z,1015.65
2023-02-03T01:15:04.616Z,1015.65
2023-02-03T01:15:37.066Z,1015.67
2023-02-03T01:16:09.634Z,1015.70
2023-02-03T01:16:42.162Z,1015.65
2023-02-03T01:17:14.607Z,1015.68
2023-02-03T01:17:47.063Z,1015.69
2023-02-03T01:18:19.486Z,1015.72
2023-02-03T01:18:52.065Z,1015.72
2023-02-03T01:19:24.507Z,1015.72
2023-02-03T01:19:56.968Z,1015.73
2023-02-03T01:20:29.503Z,1015.71
2023-02-03T01:21:01.885Z,1015.71
2023-02-03T01:21:34.374Z,1015.77
2023-02-03T01:22:06.871Z,1015.76
2023-02-03T01:22:39.370Z,1015.82
2023-02-03T01:23:11.876Z,1015.72
2023-02-03T01:23:44.362Z,1015.70
2023-02-03T01:24:16.837Z,1015.73
2023-02-03T01:24:49.276Z,1015.70
2023-02-03T01:25:21.743Z,1015.71
2023-02-03T01:25:54.230Z,1015.75
2023-02-03T01:26:26.719Z,1015.72
2023-02-03T01:26:59.211Z,1015.78
2023-02-03T01:27:32.411Z,1015.80
2023-02-03T01:28:04.928Z,1015.87
2023-02-03T01:28:37.360Z,1015.88
2023-02-03T01:29:09.852Z,1015.87
2023-02-03T01:29:42.376Z,1015.90
2023-02-03T01:30:14.917Z,1015.87
2023-02-03T01:30:47.436Z,1015.84
2023-02-03T01:31:19.941Z,1015.84
2023-02-03T01:31:52.438Z,1015.82
2023-02-03T01:32:24.887Z,1015.76
2023-02-03T01:32:57.424Z,1015.79
2023-02-03T01:33:29.890Z,1015.81
2023-02-03T01:34:02.358Z,1015.82
2023-02-03T01:34:34.819Z,1015.86
2023-02-03T01:35:07.254Z,1015.86
2023-02-03T01:35:39.719Z,1015.83
2023-02-03T01:36:12.207Z,1015.83
2023-02-03T01:36:44.959Z,1015.82
2023-02-03T01:37:17.414Z,1015.80
2023-02-03T01:37:49.915Z,1015.75
2023-02-03T01:38:22.361Z,1015.74
2023-02-03T01:38:54.829Z,1015.73
2023-02-03T01:39:27.305Z,1015.68
2023-02-03T01:39:59.750Z,1015.71
2023-02-03T01:40:32.268Z,1015.67
2023-02-03T01:41:04.817Z,1015.62
2023-02-03T01:41:37.295Z,1015.60
2023-02-03T01:42:09.774Z,1015.60
2023-02-03T01:42:42.240Z,1015.59
2023-02-03T01:43:14.743Z,1015.62
2023-02-03T01:43:47.224Z,1015.62
2023-02-03T01:44:19.674Z,1015.62
2023-02-03T01:44:52.406Z,1015.62
2023-02-03T01:45:24.622Z,1015.64
2023-02-03T01:45:57.122Z,1015.57
2023-02-03T01:46:29.550Z,1015.61
2023-02-03T01:47:02.023Z,1015.61
2023-02-03T01:47:34.465Z,1015.60
2023-02-03T01:48:06.961Z,1015.67
2023-02-03T01:48:39.433Z,1015.62
2023-02-03T01:49:11.920Z,1015.65
2023-02-03T01:49:44.441Z,1015.57
2023-02-03T01:50:17.011Z,1015.68
2023-02-03T01:50:49.461Z,1015.68
2023-02-03T01:51:21.952Z,1015.66
2023-02-03T01:51:54.466Z,1015.68
2023-02-03T01:52:26.942Z,1015.72
2023-02-03T01:52:59.529Z,1015.66
2023-02-03T01:53:32.006Z,1015.76
2023-02-03T01:54:04.489Z,1015.71
2023-02-03T01:54:37.015Z,1015.69
2023-02-03T01:55:09.449Z,1015.66
2023-02-03T01:55:41.918Z,1015.65
2023-02-03T01:56:14.370Z,1015.63
2023-02-03T01:56:46.864Z,1015.65
2023-02-03T01:57:19.299Z,1015.63
2023-02-03T01:57:51.790Z,1015.65
2023-02-03T01:58:24.282Z,1015.61
2023-02-03T01:58:56.767Z,1015.52
2023-02-03T01:59:29.217Z,1015.47
2023-02-03T02:00:01.653Z,1015.46
2023-02-03T02:00:34.135Z,1015.41
2023-02-03T02:01:06.719Z,1015.43
2023-02-03T02:01:39.154Z,1015.35
2023-02-03T02:02:11.565Z,1015.38
2023-02-03T02:02:44.072Z,1015.41
2023-02-03T02:03:16.482Z,1015.28
2023-02-03T02:03:48.946Z,1015.31
2023-02-03T02:04:21.441Z,1015.23
2023-02-03T02:04:53.920Z,1015.25
2023-02-03T02:05:26.410Z,1015.18
2023-02-03T02:05:58.938Z,1015.21
2023-02-03T02:06:31.414Z,1015.21
2023-02-03T02:07:03.955Z,1015.22
2023-02-03T02:07:36.431Z,1015.19
2023-02-03T02:08:09.004Z,1015.17
2023-02-03T02:08:41.375Z,1015.20
2023-02-03T02:09:13.831Z,1015.16
2023-02-03T02:09:46.416Z,1015.20
2023-02-03T02:10:18.967Z,1015.22
2023-02-03T02:10:51.448Z,1015.22
2023-02-03T02:11:23.879Z,1015.24
2023-02-03T02:11:56.409Z,1015.17
2023-02-03T02:12:28.866Z,1015.18
2023-02-03T02:13:01.333Z,1015.08
2023-02-03T02:13:33.784Z,1015.02
2023-02-03T02:14:06.310Z,1014.94
2023-02-03T02:14:38.759Z,1014.92
2023-02-03T02:15:11.264Z,1014.91
2023-02-03T02:15:43.749Z,1014.87
2023-02-03T02:16:16.248Z,1014.91
2023-02-03T02:16:48.654Z,1014.93
2023-02-03T02:17:21.107Z,1014.95
2023-02-03T02:17:53.625Z,1015.01
2023-02-03T02:18:26.143Z,1015.04
2023-02-03T02:18:58.619Z,1014.99
2023-02-03T02:19:31.109Z,1015.06
2023-02-03T02:20:03.566Z,1014.99
2023-02-03T02:20:36.070Z,1015.00
2023-02-03T02:21:08.507Z,1014.99
2023-02-03T02:21:41.001Z,1015.01
2023-02-03T02:22:13.448Z,1014.92
2023-02-03T02:22:45.925Z,1014.94
2023-02-03T02:23:18.365Z,1014.98
2023-02-03T02:23:50.837Z,1014.91
2023-02-03T02:24:23.348Z,1014.88
2023-02-03T02:24:55.843Z,1014.93
2023-02-03T02:25:28.301Z,1014.86
2023-02-03T02:26:00.841Z,1014.88
2023-02-03T02:26:33.444Z,1014.86
2023-02-03T02:27:06.035Z,1014.77
2023-02-03T02:27:38.522Z,1014.80
2023-02-03T02:28:11.028Z,1014.83
2023-02-03T02:28:43.406Z,1014.80
2023-02-03T02:29:15.888Z,1014.86
2023-02-03T02:29:48.351Z,1014.86
2023-02-03T02:30:20.819Z,1014.89
2023-02-03T02:30:53.307Z,1014.87
2023-02-03T02:31:25.787Z,1014.84
2023-02-03T02:31:58.353Z,1014.81
2023-02-03T02:32:30.715Z,1014.75
2023-02-03T02:33:03.158Z,1014.64
2023-02-03T02:33:35.653Z,1014.62
2023-02-03T02:34:08.402Z,1014.58
2023-02-03T02:34:40.867Z,1014.63
2023-02-03T02:35:13.341Z,1014.60
2023-02-03T02:35:45.885Z,1014.68
2023-02-03T02:36:18.343Z,1014.67
2023-02-03T02:36:50.900Z,1014.69
2023-02-03T02:37:23.388Z,1014.70
2023-02-03T02:37:55.894Z,1014.69
2023-02-03T02:38:28.371Z,1014.69
2023-02-03T02:39:00.857Z,1014.69
2023-02-03T02:39:33.368Z,1014.71
2023-02-03T02:40:05.857Z,1014.72
2023-02-03T02:40:38.370Z,1014.74
2023-02-03T02:41:10.835Z,1014.81
2023-02-03T02:41:43.336Z,1014.82
2023-02-03T02:42:16.175Z,1014.87
2023-02-03T02:42:48.794Z,1014.92
2023-02-03T02:43:21.269Z,1014.89
2023-02-03T02:43:53.737Z,1014.93
2023-02-03T02:44:26.255Z,1014.97
2023-02-03T02:44:58.686Z,1015.01
2023-02-03T02:45:31.159Z,1014.99
2023-02-03T02:46:03.712Z,1014.99
2023-02-03T02:46:36.235Z,1014.93
2023-02-03T02:47:08.648Z,1014.89
2023-02-03T02:47:41.132Z,1014.89
2023-02-03T02:48:13.621Z,1014.95
2023-02-03T02:48:46.141Z,1014.93
2023-02-03T02:49:18.665Z,1014.95
2023-02-03T02:49:51.138Z,1014.95
2023-02-03T02:50:23.889Z,1014.96
2023-02-03T02:50:56.312Z,1014.98
2023-02-03T02:51:28.776Z,1015.02
2023-02-03T02:52:01.235Z,1015.03
2023-02-03T02:52:33.705Z,1015.06
2023-02-03T02:53:06.324Z,1015.09
2023-02-03T02:53:38.788Z,1015.16
2023-02-03T02:54:11.341Z,1015.16
2023-02-03T02:54:43.771Z,1015.17
2023-02-03T02:55:16.268Z,1015.16
2023-02-03T02:55:48.757Z,1015.16
2023-02-03T02:56:21.287Z,1015.16
2023-02-03T02:56:53.786Z,1015.21
2023-02-03T02:57:26.340Z,1015.22
2023-02-03T02:57:58.797Z,1015.28
2023-02-03T02:58:31.283Z,1015.28
2023-02-03T02:59:03.894Z,1015.34
2023-02-03T02:59:36.386Z,1015.33
2023-02-03T03:00:08.952Z,1015.34
2023-02-03T03:00:41.413Z,1015.34
2023-02-03T03:01:13.910Z,1015.32
2023-02-03T03:01:46.522Z,1015.35
2023-02-03T03:02:18.940Z,1015.36
2023-02-03T03:02:51.395Z,1015.38
2023-02-03T03:03:23.889Z,1015.32
2023-02-03T03:03:56.377Z,1015.33
2023-02-03T03:04:28.955Z,1015.28
2023-02-03T03:05:01.375Z,1015.25
2023-02-03T03:05:33.852Z,1015.26
2023-02-03T03:06:06.302Z,1015.20
2023-02-03T03:06:38.793Z,1015.14
2023-02-03T03:07:11.258Z,1015.11
2023-02-03T03:07:43.822Z,1015.04
2023-02-03T03:08:17.047Z,1015.06
2023-02-03T03:08:49.538Z,1015.00
2023-02-03T03:09:22.040Z,1014.99
2023-02-03T03:09:54.593Z,1015.01
2023-02-03T03:10:27.369Z,1015.01
2023-02-03T03:10:59.485Z,1015.05
2023-02-03T03:11:31.966Z,1014.98
2023-02-03T03:12:04.433Z,1014.97
2023-02-03T03:12:36.956Z,1014.94
2023-02-03T03:13:09.456Z,1014.94
2023-02-03T03:13:41.923Z,1014.96
2023-02-03T03:14:14.402Z,1014.94
2023-02-03T03:14:46.858Z,1014.93
2023-02-03T03:15:19.332Z,1014.92
2023-02-03T03:15:51.855Z,1014.96
2023-02-03T03:16:24.356Z,1014.97
2023-02-03T03:16:56.830Z,1014.97
2023-02-03T03:17:29.304Z,1014.97
2023-02-03T03:18:01.741Z,1014.98
2023-02-03T03:18:34.194Z,1015.04
2023-02-03T03:19:06.633Z,1015.05
2023-02-03T03:19:39.235Z,1015.05
2023-02-03T03:20:11.707Z,1015.09
2023-02-03T03:20:44.184Z,1015.10
2023-02-03T03:21:16.688Z,1015.07
2023-02-03T03:21:49.133Z,1015.04
2023-02-03T03:22:21.651Z,1015.06
2023-02-03T03:22:54.085Z,1015.05
2023-02-03T03:23:26.565Z,1015.06
2023-02-03T03:23:59.081Z,1015.04
2023-02-03T03:24:31.538Z,1015.00
2023-02-03T03:25:04.036Z,1014.99
2023-02-03T03:25:36.500Z,1014.97
2023-02-03T03:26:09.005Z,1014.95
2023-02-03T03:26:41.480Z,1014.95
2023-02-03T03:27:13.948Z,1014.96
2023-02-03T03:27:46.492Z,1014.97
2023-02-03T03:28:19.060Z,1015.05
2023-02-03T03:28:51.395Z,1015.02
2023-02-03T03:29:23.913Z,1014.99
2023-02-03T03:29:56.403Z,1015.09
2023-02-03T03:30:29.084Z,1014.98
2023-02-03T03:31:01.530Z,1014.99
2023-02-03T03:31:33.898Z,1015.01
2023-02-03T03:32:06.310Z,1014.97
2023-02-03T03:32:38.723Z,1014.96
2023-02-03T03:33:11.189Z,1014.95
2023-02-03T03:33:43.651Z,1014.90
2023-02-03T03:34:16.112Z,1014.89
2023-02-03T03:34:48.672Z,1014.87
2023-02-03T03:35:21.159Z,1014.81
2023-02-03T03:35:53.670Z,1014.87
2023-02-03T03:36:26.141Z,1014.87
2023-02-03T03:36:58.595Z,1014.88
2023-02-03T03:37:31.072Z,1014.86
2023-02-03T03:38:03.590Z,1014.94
2023-02-03T03:38:36.037Z,1014.94
2023-02-03T03:39:09.304Z,1014.91
2023-02-03T03:39:41.746Z,1014.89
2023-02-03T03:40:14.215Z,1014.92
2023-02-03T03:40:46.730Z,1014.93
2023-02-03T03:41:19.205Z,1014.91
2023-02-03T03:41:51.709Z,1014.93
2023-02-03T03:42:24.187Z,1014.93
2023-02-03T03:42:56.643Z,1014.86
2023-02-03T03:43:29.103Z,1014.90
2023-02-03T03:44:01.579Z,1014.83
2023-02-03T03:44:34.101Z,1014.86
2023-02-03T03:45:06.613Z,1014.87
2023-02-03T03:45:39.068Z,1014.87
2023-02-03T03:46:11.771Z,1014.82
2023-02-03T03:46:44.243Z,1014.84
2023-02-03T03:47:16.671Z,1014.74
2023-02-03T03:47:49.188Z,1014.82
2023-02-03T03:48:22.558Z,1014.85
2023-02-03T03:48:55.048Z,1014.91
2023-02-03T03:49:27.606Z,1014.93
2023-02-03T03:50:00.138Z,1014.90
2023-02-03T03:50:32.585Z,1014.88
2023-02-03T03:51:05.028Z,1014.89
2023-02-03T03:51:37.500Z,1014.80
2023-02-03T03:52:10.123Z,1014.71
2023-02-03T03:52:42.582Z,1014.63
2023-02-03T03:53:15.010Z,1014.62
2023-02-03T03:53:47.458Z,1014.70
2023-02-03T03:54:19.899Z,1014.78
2023-02-03T03:54:52.365Z,1014.76
2023-02-03T03:55:24.816Z,1014.75
2023-02-03T03:55:57.444Z,1014.76
2023-02-03T03:56:29.930Z,1014.71
2023-02-03T03:57:02.459Z,1014.74
2023-02-03T03:57:34.951Z,1014.80
2023-02-03T03:58:07.428Z,1014.77
2023-02-03T03:58:39.925Z,1014.78
2023-02-03T03:59:12.436Z,1014.75
2023-02-03T03:59:45.027Z,1014.76
2023-02-03T04:00:17.457Z,1014.75
2023-02-03T04:00:50.891Z,1014.77
2023-02-03T04:01:23.603Z,1014.83
2023-02-03T04:01:56.114Z,1014.89
2023-02-03T04:02:28.637Z,1014.87
2023-02-03T04:03:00.990Z,1014.97
2023-02-03T04:03:34.152Z,1014.91
2023-02-03T04:04:07.360Z,1014.95
2023-02-03T04:04:40.421Z,1014.81
2023-02-03T04:05:12.957Z,1014.82
2023-02-03T04:05:45.421Z,1014.84
2023-02-03T04:06:17.883Z,1014.82
2023-02-03T04:06:50.358Z,1014.80
2023-02-03T04:07:22.834Z,1014.83
2023-02-03T04:07:55.321Z,1014.83
2023-02-03T04:08:27.787Z,1014.82
2023-02-03T04:09:00.241Z,1014.76
2023-02-03T04:09:32.716Z,1014.65
2023-02-03T04:10:05.209Z,1014.63
2023-02-03T04:10:37.684Z,1014.61
2023-02-03T04:11:10.160Z,1014.52
2023-02-03T04:11:42.683Z,1014.47
2023-02-03T04:12:15.122Z,1014.46
2023-02-03T04:12:47.608Z,1014.50
2023-02-03T04:13:20.092Z,1014.54
2023-02-03T04:13:52.564Z,1014.61
2023-02-03T04:14:25.056Z,1014.64
2023-02-03T04:14:57.541Z,1014.67
2023-02-03T04:15:30.062Z,1014.68
2023-02-03T04:16:02.613Z,1014.67
2023-02-03T04:16:35.133Z,1014.69
2023-02-03T04:17:07.539Z,1014.69
2023-02-03T04:17:40.082Z,1014.60
2023-02-03T04:18:12.623Z,1014.58
2023-02-03T04:18:45.127Z,1014.53
2023-02-03T04:19:17.560Z,1014.47
2023-02-03T04:19:50.764Z,1014.50
2023-02-03T04:20:23.316Z,1014.55
2023-02-03T04:20:55.855Z,1014.58
2023-02-03T04:21:28.364Z,1014.65
2023-02-03T04:22:00.838Z,1014.67
2023-02-03T04:22:33.350Z,1014.69
2023-02-03T04:23:05.840Z,1014.68
2023-02-03T04:23:38.273Z,1014.68
2023-02-03T04:24:10.762Z,1014.66
2023-02-03T04:24:43.251Z,1014.66
2023-02-03T04:25:15.735Z,1014.66
2023-02-03T04:25:48.210Z,1014.65
2023-02-03T04:26:20.629Z,1014.64
2023-02-03T04:26:53.169Z,1014.66
2023-02-03T04:27:26.363Z,1014.68
2023-02-03T04:27:58.859Z,1014.65
2023-02-03T04:28:31.280Z,1014.66
2023-02-03T04:29:04.257Z,1014.73
2023-02-03T04:29:36.728Z,1014.76
2023-02-03T04:30:09.195Z,1014.77
2023-02-03T04:30:41.682Z,1014.80
2023-02-03T04:31:14.223Z,1014.80
2023-02-03T04:31:46.683Z,1014.73
2023-02-03T04:32:19.063Z,1014.76
2023-02-03T04:32:51.549Z,1014.70
2023-02-03T04:33:24.020Z,1014.66
2023-02-03T04:33:56.474Z,1014.65
2023-02-03T04:34:28.916Z,1014.70
2023-02-03T04:35:01.439Z,1014.71
2023-02-03T04:35:34.478Z,1014.76
2023-02-03T04:36:07.133Z,1014.79
2023-02-03T04:36:39.671Z,1014.79
2023-02-03T04:37:12.223Z,1014.77
2023-02-03T04:37:44.737Z,1014.77
2023-02-03T04:38:17.238Z,1014.76
2023-02-03T04:38:49.713Z,1014.76
2023-02-03T04:39:22.141Z,1014.76
2023-02-03T04:39:54.663Z,1014.72
2023-02-03T04:40:27.424Z,1014.76
2023-02-03T04:40:59.610Z,1014.75
2023-02-03T04:41:32.080Z,1014.78
2023-02-03T04:42:04.526Z,1014.72
2023-02-03T04:42:37.008Z,1014.75
2023-02-03T04:43:09.504Z,1014.80
2023-02-03T04:43:41.996Z,1014.74
2023-02-03T04:44:14.526Z,1014.72
2023-02-03T04:44:47.012Z,1014.70
2023-02-03T04:45:19.511Z,1014.68
2023-02-03T04:45:52.123Z,1014.70
2023-02-03T04:46:24.468Z,1014.70
2023-02-03T04:46:56.957Z,1014.65
2023-02-03T04:47:29.411Z,1014.70
2023-02-03T04:48:01.851Z,1014.60
2023-02-03T04:48:34.345Z,1014.65
2023-02-03T04:49:06.832Z,1014.63
2023-02-03T04:49:39.367Z,1014.63
2023-02-03T04:50:12.684Z,1014.61
2023-02-03T04:50:45.449Z,1014.57
2023-02-03T04:51:18.048Z,1014.65
2023-02-03T04:51:50.608Z,1014.63
2023-02-03T04:52:23.597Z,1014.59
2023-02-03T04:52:57.002Z,1014.61
2023-02-03T04:53:29.450Z,1014.60
2023-02-03T04:54:02.083Z,1014.54
2023-02-03T04:54:35.586Z,1014.56
2023-02-03T04:55:08.313Z,1014.50
2023-02-03T04:55:41.830Z,1014.49
2023-02-03T04:56:14.520Z,1014.42
2023-02-03T04:56:47.011Z,1014.40
2023-02-03T04:57:19.497Z,1014.35
2023-02-03T04:57:51.951Z,1014.37
2023-02-03T04:58:24.444Z,1014.34
2023-02-03T04:58:56.949Z,1014.31
2023-02-03T04:59:29.455Z,1014.31
2023-02-03T05:00:01.922Z,1014.22
2023-02-03T05:00:34.443Z,1014.24
2023-02-03T05:01:06.932Z,1014.20
2023-02-03T05:01:39.886Z,1014.20
2023-02-03T05:02:12.386Z,1014.20
2023-02-03T05:02:46.132Z,1014.22
2023-02-03T05:03:19.025Z,1014.28
2023-02-03T05:03:51.767Z,1014.28
2023-02-03T05:04:24.267Z,1014.21
2023-02-03T05:04:56.808Z,1014.36
2023-02-03T05:05:29.284Z,1014.30
2023-02-03T05:06:01.814Z,1014.31
2023-02-03T05:06:36.301Z,1014.31
2023-02-03T05:07:08.760Z,1014.34
2023-02-03T05:07:42.140Z,1014.30
2023-02-03T05:08:15.501Z,1014.31
2023-02-03T05:08:48.002Z,1014.33
2023-02-03T05:09:20.490Z,1014.33
2023-02-03T05:09:53.535Z,1014.23
2023-02-03T05:10:26.248Z,1014.29
2023-02-03T05:10:59.575Z,1014.25
2023-02-03T05:11:31.301Z,1014.32
2023-02-03T05:12:03.811Z,1014.28
2023-02-03T05:12:36.317Z,1014.20
2023-02-03T05:13:10.355Z,1014.28
2023-02-03T05:13:42.833Z,1014.26
2023-02-03T05:14:15.399Z,1014.23
2023-02-03T05:14:47.920Z,1014.22
2023-02-03T05:15:20.430Z,1014.20
2023-02-03T05:15:52.917Z,1014.17
2023-02-03T05:16:25.477Z,1014.23
2023-02-03T05:16:57.894Z,1014.22
2023-02-03T05:17:30.356Z,1014.20
2023-02-03T05:18:04.190Z,1014.18
2023-02-03T05:18:37.738Z,1014.21
2023-02-03T05:19:10.208Z,1014.19
2023-02-03T05:19:42.655Z,1014.22
2023-02-03T05:20:15.509Z,1014.25
2023-02-03T05:20:48.286Z,1014.22
2023-02-03T05:21:20.786Z,1014.18
2023-02-03T05:21:53.258Z,1014.20
2023-02-03T05:22:26.768Z,1014.28
2023-02-03T05:22:59.249Z,1014.23
2023-02-03T05:23:33.927Z,1014.22
2023-02-03T05:24:05.304Z,1014.22
2023-02-03T05:24:37.795Z,1014.21
2023-02-03T05:25:10.874Z,1014.25
2023-02-03T05:25:44.135Z,1014.22
2023-02-03T05:26:18.086Z,1014.14
2023-02-03T05:26:50.543Z,1014.24
2023-02-03T05:27:23.069Z,1014.23
2023-02-03T05:27:55.588Z,1014.20
2023-02-03T05:28:28.023Z,1014.15
2023-02-03T05:29:00.532Z,1014.12
2023-02-03T05:29:33.596Z,1014.13
2023-02-03T05:30:06.474Z,1014.14
2023-02-03T05:30:38.962Z,1014.10
2023-02-03T05:31:11.460Z,1014.12
2023-02-03T05:31:44.729Z,1014.11
2023-02-03T05:32:17.408Z,1014.12
2023-02-03T05:32:51.393Z,1014.11
2023-02-03T05:33:23.961Z,1014.14
2023-02-03T05:33:56.476Z,1014.14
2023-02-03T05:34:28.983Z,1014.15
2023-02-03T05:35:01.463Z,1014.16
2023-02-03T05:35:34.002Z,1014.18
2023-02-03T05:36:06.608Z,1014.20
2023-02-03T05:36:39.812Z,1014.20
2023-02-03T05:37:12.997Z,1014.23
2023-02-03T05:37:45.559Z,1014.23
2023-02-03T05:38:18.311Z,1014.22
2023-02-03T05:38:51.752Z,1014.17
2023-02-03T05:39:24.302Z,1014.22
2023-02-03T05:39:57.262Z,1014.24
2023-02-03T05:40:31.298Z,1014.20
2023-02-03T05:41:04.877Z,1014.21
2023-02-03T05:41:37.329Z,1014.25
2023-02-03T05:42:10.607Z,1014.17
2023-02-03T05:42:43.474Z,1014.13
2023-02-03T05:43:16.169Z,1014.14
2023-02-03T05:43:49.362Z,1014.17
2023-02-03T05:44:22.807Z,1014.17
2023-02-03T05:44:55.277Z,1014.16
2023-02-03T05:45:28.605Z,1014.16
2023-02-03T05:46:01.531Z,1014.20
2023-02-03T05:46:33.985Z,1014.21
2023-02-03T05:47:07.820Z,1014.22
2023-02-03T05:47:40.321Z,1014.22
2023-02-03T05:48:12.764Z,1014.21
2023-02-03T05:48:45.234Z,1014.19
2023-02-03T05:49:18.358Z,1014.27
2023-02-03T05:49:53.470Z,1014.24
2023-02-03T05:50:27.071Z,1014.20
2023-02-03T05:51:02.442Z,1014.16
2023-02-03T05:51:34.866Z,1014.28
2023-02-03T05:52:07.386Z,1014.29
2023-02-03T05:52:39.910Z,1014.31
2023-02-03T05:53:13.227Z,1014.33
2023-02-03T05:53:46.597Z,1014.29
2023-02-03T05:54:19.175Z,1014.28
2023-02-03T05:54:52.607Z,1014.32
2023-02-03T05:55:25.727Z,1014.33
2023-02-03T05:55:58.283Z,1014.37
2023-02-03T05:56:30.718Z,1014.34
2023-02-03T05:57:03.499Z,1014.34
2023-02-03T05:57:37.124Z,1014.39
2023-02-03T05:58:11.643Z,1014.36
2023-02-03T05:58:44.877Z,1014.35
2023-02-03T05:59:19.043Z,1014.40
2023-02-03T05:59:51.824Z,1014.33
2023-02-03T06:00:24.336Z,1014.36
2023-02-03T06:00:56.779Z,1014.39
2023-02-03T06:01:29.252Z,1014.41
2023-02-03T06:02:01.793Z,1014.34
2023-02-03T06:02:34.317Z,1014.36
2023-02-03T06:03:06.853Z,1014.34
2023-02-03T06:03:39.418Z,1014.34
2023-02-03T06:04:19.410Z,1014.38
2023-02-03T06:04:51.833Z,1014.32
2023-02-03T06:05:24.211Z,1014.30
2023-02-03T06:05:56.698Z,1014.30
2023-02-03T06:06:29.233Z,1014.23
2023-02-03T06:07:01.682Z,1014.29
2023-02-03T06:07:34.120Z,1014.22
2023-02-03T06:08:06.600Z,1014.22
2023-02-03T06:08:39.040Z,1014.16
2023-02-03T06:09:11.486Z,1014.22
2023-02-03T06:09:43.917Z,1014.30
2023-02-03T06:10:16.386Z,1014.26
2023-02-03T06:10:48.808Z,1014.25
2023-02-03T06:11:21.244Z,1014.28
2023-02-03T06:11:53.690Z,1014.27
2023-02-03T06:12:28.202Z,1014.29
2023-02-03T06:12:58.610Z,1014.28
2023-02-03T06:13:31.017Z,1014.25
2023-02-03T06:14:03.477Z,1014.20
2023-02-03T06:14:35.898Z,1014.25
2023-02-03T06:15:08.328Z,1014.26
2023-02-03T06:15:40.767Z,1014.21
2023-02-03T06:16:13.301Z,1014.22
2023-02-03T06:16:45.831Z,1014.23
2023-02-03T06:17:18.235Z,1014.23
2023-02-03T06:17:50.764Z,1014.16
2023-02-03T06:18:23.243Z,1014.19
2023-02-03T06:18:55.722Z,1014.23
2023-02-03T06:19:28.185Z,1014.23
2023-02-03T06:20:00.695Z,1014.23
2023-02-03T06:20:33.152Z,1014.25
2023-02-03T06:21:05.639Z,1014.26
2023-02-03T06:21:38.127Z,1014.31
2023-02-03T06:22:10.591Z,1014.33
2023-02-03T06:22:43.005Z,1014.31
2023-02-03T06:23:15.437Z,1014.28
2023-02-03T06:23:47.871Z,1014.32
2023-02-03T06:24:20.319Z,1014.40
2023-02-03T06:24:52.779Z,1014.27
2023-02-03T06:25:25.207Z,1014.37
2023-02-03T06:25:57.656Z,1014.30
2023-02-03T06:26:30.135Z,1014.40
2023-02-03T06:27:02.575Z,1014.33
2023-02-03T06:27:35.034Z,1014.32
2023-02-03T06:28:07.560Z,1014.26
2023-02-03T06:28:39.956Z,1014.26
2023-02-03T06:29:12.436Z,1014.29
2023-02-03T06:29:44.881Z,1014.18
2023-02-03T06:30:17.390Z,1014.27
2023-02-03T06:30:49.923Z,1014.23
2023-02-03T06:31:22.386Z,1014.31
2023-02-03T06:31:54.859Z,1014.24
2023-02-03T06:32:27.255Z,1014.23
2023-02-03T06:32:59.704Z,1014.21
2023-02-03T06:33:32.215Z,1014.23
2023-02-03T06:34:04.726Z,1014.27